Time;durP1;ratioP1;P1;durP2;ratioP2;P2;SDS_P1;SDS_P2;PMS_P1;PMS_P2;Temp;Humidity;BMP_temperature;BMP_pressure;BME280_temperature;BME280_humidity;BME280_pressure;Samples;Min_cycle;Max_cycle;Signal;HPM_P1;HPM_P2
2022/10/07 04:01:41;;;;;;;16.45;9.18;;;;;;;10.30;100.00;101724.63;6638665;26;20465;-90
2022/10/07 04:04:45;;;;;;;13.07;8.48;;;;;;;10.25;100.00;101726.00;6662400;26;33794;-88
2022/10/07 04:07:50;;;;;;;16.50;8.75;;;;;;;10.25;100.00;101712.56;6661835;26;33477;-88
2022/10/07 04:10:56;;;;;;;12.30;8.55;;;;;;;10.25;100.00;101716.09;6641168;26;32806;-87
2022/10/07 04:13:59;;;;;;;14.10;8.95;;;;;;;10.24;100.00;101711.72;6661709;26;34443;-87
2022/10/07 04:17:02;;;;;;;14.75;8.57;;;;;;;10.23;100.00;101715.37;6661253;26;33841;-86
2022/10/07 04:20:06;;;;;;;12.93;8.52;;;;;;;10.20;100.00;101716.50;6660672;26;34447;-86
2022/10/07 04:23:09;;;;;;;14.02;8.57;;;;;;;10.17;100.00;101713.25;6661020;26;33370;-86
2022/10/07 04:26:12;;;;;;;15.25;9.00;;;;;;;10.19;100.00;101711.28;6660895;26;34043;-86
2022/10/07 04:29:15;;;;;;;18.50;8.98;;;;;;;10.17;100.00;101716.78;6660713;26;34945;-86
2022/10/07 04:32:19;;;;;;;14.68;9.15;;;;;;;10.11;100.00;101705.75;6660654;26;33120;-91
2022/10/07 04:35:23;;;;;;;12.50;8.43;;;;;;;10.09;100.00;101702.34;6661238;26;33783;-91
2022/10/07 04:38:26;;;;;;;14.43;8.35;;;;;;;10.07;100.00;101704.34;6661385;26;33782;-91
2022/10/07 04:41:31;;;;;;;20.65;9.38;;;;;;;10.06;100.00;101710.69;6650767;26;31961;-87
2022/10/07 04:44:34;;;;;;;13.27;8.60;;;;;;;10.06;100.00;101708.88;6679969;26;33734;-87
2022/10/07 04:47:37;;;;;;;13.60;8.73;;;;;;;10.03;100.00;101722.59;6640642;26;31895;-87
2022/10/07 04:50:40;;;;;;;17.17;8.93;;;;;;;10.00;100.00;101720.19;6640419;26;33300;-87
2022/10/07 04:53:43;;;;;;;14.30;8.65;;;;;;;10.00;100.00;101722.88;6661138;26;33742;-87
2022/10/07 04:56:48;;;;;;;16.35;8.82;;;;;;;9.97;100.00;101713.28;6641554;26;32533;-86
2022/10/07 04:59:52;;;;;;;16.00;8.80;;;;;;;9.93;100.00;101722.59;6662565;26;33470;-87
2022/10/07 05:02:55;;;;;;;16.40;8.10;;;;;;;9.93;100.00;101721.75;6662468;26;33436;-87
2022/10/07 05:06:04;;;;;;;17.48;8.48;;;;;;;9.91;100.00;101719.19;6662717;26;33168;-87
2022/10/07 05:09:08;;;;;;;13.80;8.82;;;;;;;9.90;100.00;101727.41;6664700;26;33553;-86
2022/10/07 05:12:12;;;;;;;15.13;9.10;;;;;;;9.95;100.00;101730.53;6664736;26;34112;-86
2022/10/07 05:15:15;;;;;;;15.35;8.48;;;;;;;10.08;100.00;101730.25;6666992;26;33635;-87
2022/10/07 05:18:20;;;;;;;17.67;9.38;;;;;;;10.04;100.00;101735.06;6675176;26;34907;-87
2022/10/07 05:21:23;;;;;;;14.63;9.38;;;;;;;10.05;100.00;101735.94;6646866;26;32548;-87
2022/10/07 05:24:26;;;;;;;16.37;8.95;;;;;;;10.06;100.00;101741.19;6662656;26;33720;-87
2022/10/07 05:27:29;;;;;;;15.68;8.85;;;;;;;10.04;100.00;101743.16;6642676;26;32330;-87
2022/10/07 05:30:33;;;;;;;16.83;8.57;;;;;;;10.07;100.00;101736.66;6663532;26;33060;-87
2022/10/07 05:33:36;;;;;;;15.32;9.02;;;;;;;10.15;100.00;101734.06;6672038;26;35026;-87
2022/10/07 05:36:40;;;;;;;17.85;9.27;;;;;;;10.21;100.00;101733.53;6659935;26;31747;-88
2022/10/07 05:39:42;;;;;;;19.45;10.15;;;;;;;10.26;100.00;101730.41;6643680;26;31991;-88
2022/10/07 05:42:46;;;;;;;14.85;9.15;;;;;;;10.36;100.00;101733.97;6663171;26;33627;-87
2022/10/07 05:46:00;;;;;;;16.37;8.85;;;;;;;10.42;100.00;101728.84;6642885;26;33639;-88
2022/10/07 05:49:03;;;;;;;16.15;10.00;;;;;;;10.54;100.00;101726.00;6642841;26;32767;-88
2022/10/07 05:52:06;;;;;;;15.40;8.90;;;;;;;10.63;100.00;101734.06;6663062;26;34221;-88
2022/10/07 05:55:10;;;;;;;16.40;9.40;;;;;;;10.77;100.00;101732.75;6663963;26;34769;-88
2022/10/07 05:58:13;;;;;;;13.57;8.73;;;;;;;10.87;100.00;101735.41;6663978;26;33970;-87
2022/10/07 06:01:21;;;;;;;15.85;9.50;;;;;;;11.02;100.00;101733.94;6661749;26;34017;-88
2022/10/07 06:04:26;;;;;;;14.40;8.65;;;;;;;11.16;100.00;101735.31;6662862;26;32566;-88
2022/10/07 06:07:30;;;;;;;15.25;8.75;;;;;;;11.37;100.00;101737.78;6663192;26;33290;-88
2022/10/07 06:13:55;;;;;;;16.75;8.98;;;;;;;11.58;100.00;101734.81;6642988;26;32288;-91
2022/10/07 06:16:59;;;;;;;12.95;7.70;;;;;;;11.71;100.00;101738.00;6642705;26;31729;-92
2022/10/07 06:20:02;;;;;;;16.60;8.20;;;;;;;11.76;100.00;101742.97;6664819;26;33835;-92
2022/10/07 06:23:06;;;;;;;16.02;8.10;;;;;;;12.00;100.00;101742.41;6663834;26;33873;-92
2022/10/07 06:26:10;;;;;;;16.85;8.65;;;;;;;11.99;100.00;101744.25;6663675;26;34487;-88
2022/10/07 06:29:13;;;;;;;13.82;8.30;;;;;;;12.18;100.00;101742.37;6663276;26;33471;-88
2022/10/07 06:32:16;;;;;;;12.98;7.90;;;;;;;12.29;100.00;101744.00;6663144;26;33186;-88
2022/10/07 06:35:22;;;;;;;13.73;8.55;;;;;;;12.42;100.00;101742.59;6643066;26;32956;-88
2022/10/07 06:38:27;;;;;;;16.75;8.73;;;;;;;12.51;100.00;101743.50;6672712;26;33739;-89
2022/10/07 06:41:30;;;;;;;10.85;7.78;;;;;;;12.63;100.00;101744.94;6685110;26;34344;-88
2022/10/07 06:44:35;;;;;;;15.90;9.23;;;;;;;12.80;100.00;101743.22;6685840;26;34945;-88
2022/10/07 06:47:38;;;;;;;14.10;8.30;;;;;;;12.95;100.00;101740.75;6666413;26;32912;-89
2022/10/07 06:50:50;;;;;;;12.80;9.30;;;;;;;13.00;100.00;101734.87;6666495;26;33326;-88
2022/10/07 06:53:56;;;;;;;12.65;8.60;;;;;;;13.15;100.00;101736.81;6664672;26;33407;-87
2022/10/07 06:56:59;;;;;;;14.02;9.02;;;;;;;13.23;100.00;101732.47;6661571;26;33848;-88
2022/10/07 07:00:03;;;;;;;16.17;9.95;;;;;;;13.34;100.00;101740.34;6643796;26;32286;-88
2022/10/07 07:03:06;;;;;;;18.50;9.80;;;;;;;13.49;100.00;101735.16;6663125;26;33327;-87
2022/10/07 07:06:13;;;;;;;13.90;9.57;;;;;;;13.66;100.00;101736.03;6663331;26;33844;-88
2022/10/07 07:09:16;;;;;;;13.52;9.05;;;;;;;13.82;100.00;101730.66;6663457;26;33275;-88
2022/10/07 07:12:21;;;;;;;14.05;9.45;;;;;;;13.97;100.00;101741.69;6663299;26;34534;-88
2022/10/07 07:15:24;;;;;;;15.75;10.10;;;;;;;14.03;100.00;101725.63;6663274;26;33335;-88
2022/10/07 07:18:28;;;;;;;12.88;9.23;;;;;;;14.14;100.00;101732.56;6662090;26;34052;-88
2022/10/07 07:21:33;;;;;;;14.38;9.30;;;;;;;14.11;100.00;101735.63;6671725;26;34242;-88
2022/10/07 07:24:35;;;;;;;14.38;8.93;;;;;;;14.27;100.00;101732.06;6684648;26;35014;-89
2022/10/07 07:27:38;;;;;;;13.32;9.20;;;;;;;14.35;100.00;101726.66;6666015;26;34046;-88
2022/10/07 07:30:42;;;;;;;14.07;9.18;;;;;;;14.66;100.00;101726.84;6663914;26;33635;-88
2022/10/07 07:33:51;;;;;;;15.82;9.85;;;;;;;14.84;100.00;101720.38;6643559;26;32332;-88
2022/10/07 07:36:54;;;;;;;14.25;9.13;;;;;;;15.06;100.00;101719.62;6642402;26;31698;-88
2022/10/07 07:39:57;;;;;;;13.82;8.77;;;;;;;15.26;100.00;101711.91;6661766;26;33927;-88
2022/10/07 07:43:01;;;;;;;12.75;8.40;;;;;;;15.38;98.15;101712.38;6662004;26;33758;-89
2022/10/07 07:46:03;;;;;;;13.73;8.65;;;;;;;15.64;99.20;101710.19;6662332;26;33225;-88
2022/10/07 07:49:09;;;;;;;12.32;8.55;;;;;;;15.84;97.93;101718.78;6642054;26;32277;-89
2022/10/07 07:52:12;;;;;;;11.20;8.40;;;;;;;15.82;96.61;101709.97;6642186;26;33573;-88
2022/10/07 07:55:17;;;;;;;17.08;8.52;;;;;;;16.00;93.66;101709.69;6678371;26;33243;-88
2022/10/07 07:58:21;;;;;;;17.62;8.80;;;;;;;16.26;90.95;101708.44;6665057;26;33433;-89
2022/10/07 08:01:25;;;;;;;14.82;8.73;;;;;;;16.38;89.62;101706.12;6669293;26;34177;-88
2022/10/07 08:04:29;;;;;;;11.98;7.80;;;;;;;16.47;88.11;101711.34;6665580;26;33426;-88
2022/10/07 08:07:34;;;;;;;12.57;7.93;;;;;;;16.50;86.80;101708.25;6641491;26;33390;-93
2022/10/07 08:10:39;;;;;;;11.77;8.18;;;;;;;16.62;87.52;101702.38;6662601;26;33991;-92
2022/10/07 08:13:42;;;;;;;16.45;8.20;;;;;;;16.59;85.97;101694.56;6663260;26;34978;-91
2022/10/07 08:16:46;;;;;;;11.12;8.23;;;;;;;16.66;85.05;101703.66;6640703;26;33478;-89
2022/10/07 08:19:49;;;;;;;13.68;8.25;;;;;;;16.97;84.43;101693.50;6661554;26;33634;-89
2022/10/07 08:22:52;;;;;;;16.40;8.05;;;;;;;17.10;84.13;101697.44;6661038;26;33079;-89
2022/10/07 08:26:00;;;;;;;10.80;7.70;;;;;;;17.11;84.29;101690.94;6661200;26;33021;-88
2022/10/07 08:29:04;;;;;;;13.13;7.40;;;;;;;17.42;83.74;101696.19;6640800;26;32518;-89
2022/10/07 08:32:07;;;;;;;10.77;7.03;;;;;;;17.50;82.08;101690.63;6662455;26;33867;-88
2022/10/07 08:35:10;;;;;;;12.85;7.78;;;;;;;17.51;81.42;101688.75;6642724;26;31819;-88
2022/10/07 08:38:14;;;;;;;10.32;7.10;;;;;;;17.65;81.32;101685.97;6642563;26;31985;-89
2022/10/07 08:41:36;;;;;;;11.35;7.75;;;;;;;17.83;79.95;101676.56;6642861;26;32083;-89
2022/10/07 08:44:46;;;;;;;12.57;8.55;;;;;;;17.96;78.47;101681.28;6647158;26;32474;-88
2022/10/07 08:47:51;;;;;;;13.52;8.35;;;;;;;18.07;78.03;101675.31;6643762;26;32335;-88
2022/10/07 08:51:01;;;;;;;15.02;7.70;;;;;;;18.25;76.96;101678.44;6663357;26;33549;-88
2022/10/07 08:54:04;;;;;;;13.60;8.02;;;;;;;18.40;76.96;101675.62;6663745;26;34318;-88
2022/10/07 08:57:21;;;;;;;12.15;8.05;;;;;;;18.47;75.56;101660.13;6666196;26;34421;-88
2022/10/07 09:00:25;;;;;;;12.93;8.70;;;;;;;18.65;75.25;101654.16;6660510;26;34398;-88
2022/10/07 09:03:48;;;;;;;14.85;9.15;;;;;;;18.71;75.53;101658.81;6640741;26;32725;-88
2022/10/07 09:07:17;;;;;;;10.70;8.25;;;;;;;18.85;74.50;101654.31;6661627;26;33640;-88
2022/10/07 09:10:27;;;;;;;13.03;9.00;;;;;;;19.08;74.66;101656.75;6662041;26;33578;-90
2022/10/07 09:13:34;;;;;;;11.25;8.00;;;;;;;19.13;74.01;101643.34;6640731;26;32880;-89
2022/10/07 09:16:43;;;;;;;13.88;8.43;;;;;;;19.17;73.73;101643.78;6640435;26;32279;-88
2022/10/07 09:19:56;;;;;;;10.25;7.40;;;;;;;19.33;73.31;101646.13;6662069;26;33433;-89
2022/10/07 09:23:02;;;;;;;9.20;6.07;;;;;;;19.40;72.61;101638.00;6662206;26;34683;-88
2022/10/07 09:26:10;;;;;;;9.07;6.35;;;;;;;19.40;71.92;101627.91;6662217;26;33471;-88
2022/10/07 09:29:18;;;;;;;11.15;6.37;;;;;;;19.27;72.98;101636.03;6662090;26;33451;-88
2022/10/07 09:32:21;;;;;;;11.23;6.47;;;;;;;19.24;73.67;101629.09;6662134;26;33787;-88
2022/10/07 09:35:28;;;;;;;8.27;6.30;;;;;;;19.26;73.38;101627.00;6641589;26;32812;-88
2022/10/07 09:38:43;;;;;;;9.00;6.28;;;;;;;19.56;71.25;101620.37;6661048;26;33278;-88
2022/10/07 09:41:47;;;;;;;8.25;5.50;;;;;;;19.45;71.28;101613.59;6660216;26;34082;-88
2022/10/07 09:44:55;;;;;;;10.15;6.18;;;;;;;19.62;72.04;101609.44;6663683;26;33329;-88
2022/10/07 09:48:11;;;;;;;8.05;5.45;;;;;;;19.78;70.85;101600.06;6662714;26;33523;-88
2022/10/07 09:51:19;;;;;;;9.27;5.80;;;;;;;19.99;69.86;101603.63;6662959;26;33468;-88
2022/10/07 09:54:25;;;;;;;6.95;5.18;;;;;;;20.09;69.07;101593.09;6662300;26;33516;-88
2022/10/07 09:57:35;;;;;;;7.57;5.07;;;;;;;20.26;69.18;101593.53;6662043;26;33955;-88
2022/10/07 10:00:43;;;;;;;8.00;5.40;;;;;;;20.38;67.18;101578.97;6661726;26;34399;-88
2022/10/07 10:03:46;;;;;;;8.80;5.15;;;;;;;20.32;68.30;101581.72;6674043;26;33437;-88
2022/10/07 10:06:50;;;;;;;6.22;3.78;;;;;;;20.56;68.56;101572.87;6678339;26;33504;-88
2022/10/07 10:10:15;;;;;;;6.75;3.50;;;;;;;20.69;66.25;101572.00;6642241;26;31784;-88
2022/10/07 10:13:38;;;;;;;5.65;3.37;;;;;;;20.75;66.11;101564.81;6641504;26;32687;-88
2022/10/07 10:16:45;;;;;;;4.57;3.10;;;;;;;20.90;65.62;101562.66;6654906;26;33129;-88
2022/10/07 10:19:48;;;;;;;7.82;3.10;;;;;;;21.26;64.15;101562.06;6673299;26;33905;-88
2022/10/07 10:22:51;;;;;;;3.22;2.67;;;;;;;21.28;64.54;101564.56;6662811;26;33219;-88
2022/10/07 10:29:44;;;;;;;3.00;2.70;;;;;;;21.53;62.16;101545.47;6665696;26;33186;-87
2022/10/07 10:32:59;;;;;;;3.95;3.08;;;;;;;21.72;63.17;101544.47;6665231;26;33495;-87
2022/10/07 10:36:18;;;;;;;3.83;2.65;;;;;;;21.81;59.91;101545.03;6677601;26;33577;-88
2022/10/07 10:39:51;;;;;;;3.10;2.80;;;;;;;21.98;60.32;101541.72;6677294;26;34416;-88
2022/10/07 10:43:21;;;;;;;4.82;2.95;;;;;;;21.84;60.17;101530.03;6684541;26;33416;-88
2022/10/07 10:46:24;;;;;;;3.30;2.87;;;;;;;22.04;59.45;101535.34;6665298;26;33040;-88
2022/10/07 10:49:27;;;;;;;4.18;2.60;;;;;;;22.29;57.65;101525.19;6653075;26;33469;-88
2022/10/07 10:52:48;;;;;;;4.70;2.72;;;;;;;22.48;56.75;101520.53;6661673;26;33657;-87
2022/10/07 10:56:16;;;;;;;3.00;2.80;;;;;;;22.64;56.12;101513.59;6662640;26;34591;-87
2022/10/07 10:59:24;;;;;;;3.30;2.97;;;;;;;22.43;56.72;101514.87;6642688;26;33503;-87
2022/10/07 11:02:36;;;;;;;4.05;2.90;;;;;;;22.68;57.26;101503.00;6662323;26;33460;-87
2022/10/07 11:05:41;;;;;;;3.50;2.80;;;;;;;23.07;57.00;101491.47;6663929;26;34149;-87
2022/10/07 11:08:46;;;;;;;4.05;3.45;;;;;;;23.75;52.30;101492.97;6660235;26;33795;-87
2022/10/07 11:11:49;;;;;;;4.05;2.70;;;;;;;23.92;51.95;101482.06;6660607;26;34560;-87
2022/10/07 11:15:04;;;;;;;4.05;2.85;;;;;;;24.06;52.14;101471.66;6661738;26;34352;-88
2022/10/07 11:18:17;;;;;;;3.10;2.37;;;;;;;24.47;49.42;101466.25;6661680;26;34805;-88
2022/10/07 11:21:26;;;;;;;5.80;3.10;;;;;;;25.04;48.37;101464.34;6662028;26;33174;-88
2022/10/07 11:24:44;;;;;;;3.12;2.83;;;;;;;25.61;48.16;101455.09;6661847;26;34664;-87
2022/10/07 11:27:51;;;;;;;3.23;2.57;;;;;;;25.60;46.08;101455.38;6657339;26;144209;-91
2022/10/07 11:31:08;;;;;;;5.15;2.95;;;;;;;25.72;45.51;101453.34;6661528;26;33408;-91
2022/10/07 11:34:29;;;;;;;3.95;2.80;;;;;;;25.96;44.50;101434.69;6640975;26;33189;-89
2022/10/07 11:38:13;;;;;;;3.45;2.90;;;;;;;26.56;43.67;101430.22;6660348;26;34234;-87
2022/10/07 11:41:21;;;;;;;3.20;2.90;;;;;;;27.59;40.99;101430.09;6661058;26;34652;-87
2022/10/07 11:44:30;;;;;;;2.58;2.37;;;;;;;28.54;39.37;101424.50;6661123;26;33290;-87
2022/10/07 11:47:39;;;;;;;5.03;2.83;;;;;;;29.35;35.37;101420.19;6660446;26;33790;-87
2022/10/07 11:50:45;;;;;;;;;;;;;;;29.94;32.66;101414.00;6662093;26;33996;-88
2022/10/07 11:53:52;;;;;;;4.00;2.37;;;;;;;31.54;31.69;101401.62;6661758;26;33331;-87
2022/10/07 11:56:59;;;;;;;2.97;2.45;;;;;;;33.06;28.96;101402.72;6640959;26;33535;-88
2022/10/07 12:00:07;;;;;;;4.25;2.10;;;;;;;33.21;28.11;101398.00;6660649;26;33137;-88
2022/10/07 12:03:16;;;;;;;2.70;2.20;;;;;;;33.40;28.48;101390.38;6661885;26;34157;-88
2022/10/07 12:06:19;;;;;;;6.00;2.40;;;;;;;34.25;27.18;101385.38;6641066;26;32265;-87
2022/10/07 12:09:53;;;;;;;2.50;2.22;;;;;;;34.43;26.56;101377.97;6662832;26;33501;-87
2022/10/07 12:13:09;;;;;;;6.93;2.60;;;;;;;33.85;26.88;101376.72;6664471;26;33715;-88
2022/10/07 12:16:32;;;;;;;4.03;2.42;;;;;;;33.83;27.69;101377.00;6664156;26;33455;-88
2022/10/07 12:19:35;;;;;;;6.57;2.58;;;;;;;33.68;27.46;101363.38;6644077;26;33967;-88
2022/10/07 12:22:38;;;;;;;2.78;2.10;;;;;;;34.82;25.76;101346.59;6662456;26;33927;-87
2022/10/07 12:25:54;;;;;;;2.50;1.90;;;;;;;34.61;25.73;101348.25;6641854;26;32245;-87
2022/10/07 12:28:58;;;;;;;4.62;2.40;;;;;;;34.69;26.34;101350.28;6663802;26;33463;-87
2022/10/07 12:32:01;;;;;;;6.45;2.40;;;;;;;34.96;25.43;101344.56;6643949;26;32922;-88
2022/10/07 12:35:33;;;;;;;2.20;2.00;;;;;;;34.10;26.44;101341.81;6665098;26;33367;-89
2022/10/07 12:38:37;;;;;;;2.20;2.00;;;;;;;33.81;26.89;101340.16;6670423;26;33271;-88
2022/10/07 12:41:45;;;;;;;4.12;2.22;;;;;;;34.30;27.27;101338.56;6670731;26;33622;-88
2022/10/07 12:44:51;;;;;;;2.42;2.22;;;;;;;35.23;25.67;101327.94;6674576;26;32938;-88
2022/10/07 12:47:55;;;;;;;4.57;2.35;;;;;;;35.23;25.40;101322.34;6678965;26;34773;-88
2022/10/07 12:51:00;;;;;;;4.85;2.58;;;;;;;32.84;28.17;101321.59;6665218;26;33686;-88
2022/10/07 12:54:13;;;;;;;5.00;2.37;;;;;;;32.74;28.68;101323.44;6662854;26;34592;-88
2022/10/07 12:57:22;;;;;;;2.45;2.25;;;;;;;31.60;30.44;101313.31;6662337;26;33549;-88
2022/10/07 13:00:29;;;;;;;4.05;2.40;;;;;;;30.23;32.30;101313.34;6662601;26;34083;-89
2022/10/07 13:03:59;;;;;;;2.53;2.33;;;;;;;28.55;35.13;101311.72;6662110;26;33824;-92
2022/10/07 13:07:21;;;;;;;3.28;2.70;;;;;;;28.24;36.41;101318.03;6662526;26;33533;-88
2022/10/07 13:10:43;;;;;;;4.37;2.72;;;;;;;28.03;36.76;101303.31;6662479;26;34484;-88
2022/10/07 13:14:01;;;;;;;3.58;2.97;;;;;;;27.45;37.75;101301.66;6662122;26;33724;-88
2022/10/07 13:17:27;;;;;;;2.62;2.40;;;;;;;26.80;39.38;101300.91;6662672;26;33374;-88
2022/10/07 13:20:35;;;;;;;3.72;2.50;;;;;;;26.07;40.46;101289.41;6667290;26;34336;-87
2022/10/07 13:23:38;;;;;;;3.47;2.50;;;;;;;25.31;42.59;101290.87;6666971;26;33803;-87
2022/10/07 13:26:43;;;;;;;2.78;2.17;;;;;;;25.25;42.87;101282.81;6642196;26;34833;-88
2022/10/07 13:29:46;;;;;;;3.05;2.72;;;;;;;25.22;43.10;101283.31;6642000;26;32264;-87
2022/10/07 13:32:49;;;;;;;12.95;2.90;;;;;;;24.52;44.66;101282.72;6661140;26;33860;-87
2022/10/07 13:36:34;;;;;;;3.25;2.42;;;;;;;24.17;44.32;101275.47;6640896;26;32768;-87
2022/10/07 13:39:36;;;;;;;2.87;2.65;;;;;;;23.76;45.41;101277.41;6642110;26;33496;-87
2022/10/07 13:42:39;;;;;;;4.80;2.80;;;;;;;23.38;46.27;101279.84;6641499;26;31873;-87
2022/10/07 13:45:44;;;;;;;4.22;2.60;;;;;;;23.23;47.27;101264.69;6663439;26;33284;-87
2022/10/07 13:48:47;;;;;;;3.30;2.95;;;;;;;23.08;48.26;101267.94;6662293;26;33950;-87
2022/10/07 13:51:52;;;;;;;3.53;3.17;;;;;;;23.13;49.00;101269.94;6664225;26;33170;-87
2022/10/07 13:54:58;;;;;;;4.95;2.90;;;;;;;22.73;49.77;101265.13;6661910;26;33430;-87
2022/10/07 13:58:04;;;;;;;4.20;2.72;;;;;;;22.59;51.80;101258.19;6661267;26;33438;-87
2022/10/07 14:01:07;;;;;;;3.20;2.55;;;;;;;22.24;51.39;101260.84;6641269;26;32841;-87
2022/10/07 14:04:16;;;;;;;9.50;3.42;;;;;;;22.19;51.12;101256.06;6661398;26;33534;-87
2022/10/07 14:07:20;;;;;;;5.32;2.80;;;;;;;22.04;51.67;101252.88;6661781;26;33876;-87
2022/10/07 14:10:29;;;;;;;3.12;2.60;;;;;;;22.08;51.19;101248.59;6640955;26;32429;-87
2022/10/07 14:13:34;;;;;;;2.80;2.60;;;;;;;21.80;52.40;101241.81;6641173;26;33848;-87
2022/10/07 14:16:37;;;;;;;3.70;2.90;;;;;;;21.86;52.77;101237.31;6661517;26;34067;-86
2022/10/07 14:19:40;;;;;;;3.42;2.72;;;;;;;21.49;54.10;101238.16;6640761;26;31924;-87
2022/10/07 14:22:49;;;;;;;4.53;2.85;;;;;;;21.40;53.44;101234.06;6661472;26;33746;-86
2022/10/07 14:26:05;;;;;;;3.35;3.03;;;;;;;21.49;54.20;101229.94;6661092;26;34814;-87
2022/10/07 14:29:26;;;;;;;5.15;3.00;;;;;;;21.28;55.16;101236.69;6641246;26;31882;-86
2022/10/07 14:36:10;;;;;;;3.55;3.00;;;;;;;21.08;56.31;101229.78;6662261;26;33448;-86
2022/10/07 14:39:43;;;;;;;5.57;3.55;;;;;;;20.92;57.16;101242.16;6661375;26;32950;-90
2022/10/07 14:42:46;;;;;;;4.37;3.10;;;;;;;20.78;57.75;101227.75;6653064;26;34225;-87
2022/10/07 14:45:49;;;;;;;4.85;3.10;;;;;;;20.64;57.64;101221.53;6642609;26;32361;-87
2022/10/07 14:48:53;;;;;;;3.65;2.92;;;;;;;20.55;57.43;101215.50;6661579;26;33498;-87
2022/10/07 14:51:55;;;;;;;6.43;3.35;;;;;;;20.52;57.64;101224.16;6663060;26;33405;-86
2022/10/07 14:55:10;;;;;;;6.55;3.20;;;;;;;20.37;58.30;101209.97;6661931;26;33771;-87
2022/10/07 14:58:13;;;;;;;6.15;3.00;;;;;;;20.36;58.35;101213.78;6661620;26;33361;-86
2022/10/07 15:01:15;;;;;;;4.50;3.05;;;;;;;20.22;59.08;101210.28;6662244;26;33345;-86
2022/10/07 15:04:18;;;;;;;3.62;3.03;;;;;;;20.09;59.38;101211.19;6662313;26;33088;-86
2022/10/07 15:07:21;;;;;;;6.43;3.33;;;;;;;20.08;60.61;101209.53;6642194;26;32386;-88
2022/10/07 15:10:25;;;;;;;4.12;3.25;;;;;;;19.99;61.86;101212.75;6661434;26;34297;-87
2022/10/07 15:13:28;;;;;;;4.60;3.33;;;;;;;19.93;62.37;101214.47;6661383;26;33152;-87
2022/10/07 15:16:31;;;;;;;5.30;3.47;;;;;;;19.85;63.29;101210.09;6641113;26;33142;-87
2022/10/07 15:19:34;;;;;;;6.90;3.50;;;;;;;19.73;64.22;101211.00;6661122;26;34258;-87
2022/10/07 15:22:37;;;;;;;4.95;3.40;;;;;;;19.64;64.71;101210.37;6641177;26;32166;-87
2022/10/07 15:25:41;;;;;;;4.15;3.20;;;;;;;19.65;64.36;101204.72;6661678;26;33510;-87
2022/10/07 15:28:43;;;;;;;5.20;2.97;;;;;;;19.51;65.11;101205.84;6671756;26;35049;-87
2022/10/07 15:31:46;;;;;;;4.82;3.58;;;;;;;19.39;65.78;101208.41;6681023;26;33808;-87
2022/10/07 15:34:53;;;;;;;6.53;3.60;;;;;;;19.33;66.10;101206.50;6662748;26;33121;-87
2022/10/07 15:37:55;;;;;;;6.55;3.40;;;;;;;19.23;66.73;101204.22;6660877;26;33248;-87
2022/10/07 15:41:00;;;;;;;5.03;3.42;;;;;;;19.11;67.45;101195.03;6661616;26;34872;-87
2022/10/07 15:44:14;;;;;;;4.05;3.55;;;;;;;19.06;67.66;101200.28;6640686;26;32069;-87
2022/10/07 15:47:17;;;;;;;4.55;3.50;;;;;;;18.96;68.21;101203.47;6661199;26;33787;-87
2022/10/07 15:50:20;;;;;;;4.43;3.55;;;;;;;18.87;68.94;101201.19;6661257;26;34159;-87
2022/10/07 15:53:24;;;;;;;3.40;3.08;;;;;;;18.78;69.51;101195.94;6661683;26;33384;-87
